sensor_id;sensor_type;location;lat;lon;timestamp;P1;durP1;ratioP1;P2;durP2;ratioP2
13855;SDS011;6998;53.608;9.958;2022-07-21T00:00:21;14.55;;;11.13;;
13855;SDS011;6998;53.608;9.958;2022-07-21T00:02:49;13.02;;;10.65;;
13855;SDS011;6998;53.608;9.958;2022-07-21T00:05:17;12.32;;;10.48;;
13855;SDS011;6998;53.608;9.958;2022-07-21T00:07:44;13.55;;;11.05;;
13855;SDS011;6998;53.608;9.958;2022-07-21T00:10:11;14.48;;;11.48;;
13855;SDS011;6998;53.608;9.958;2022-07-21T00:12:38;14.50;;;11.57;;
13855;SDS011;6998;53.608;9.958;2022-07-21T00:15:07;13.35;;;11.63;;
13855;SDS011;6998;53.608;9.958;2022-07-21T00:17:34;14.80;;;11.13;;
13855;SDS011;6998;53.608;9.958;2022-07-21T00:20:02;12.27;;;10.77;;
13855;SDS011;6998;53.608;9.958;2022-07-21T00:22:30;13.30;;;11.48;;
13855;SDS011;6998;53.608;9.958;2022-07-21T00:24:57;14.73;;;11.65;;
13855;SDS011;6998;53.608;9.958;2022-07-21T00:27:24;12.75;;;11.40;;
13855;SDS011;6998;53.608;9.958;2022-07-21T00:29:51;13.65;;;11.05;;
13855;SDS011;6998;53.608;9.958;2022-07-21T00:32:19;14.82;;;11.82;;
13855;SDS011;6998;53.608;9.958;2022-07-21T00:34:46;17.95;;;12.45;;
13855;SDS011;6998;53.608;9.958;2022-07-21T00:37:12;14.23;;;12.48;;
13855;SDS011;6998;53.608;9.958;2022-07-21T00:39:39;16.17;;;11.98;;
13855;SDS011;6998;53.608;9.958;2022-07-21T00:42:06;14.60;;;11.40;;
13855;SDS011;6998;53.608;9.958;2022-07-21T00:44:33;17.17;;;12.05;;
13855;SDS011;6998;53.608;9.958;2022-07-21T00:47:00;12.70;;;10.68;;
13855;SDS011;6998;53.608;9.958;2022-07-21T00:49:28;14.63;;;11.43;;
13855;SDS011;6998;53.608;9.958;2022-07-21T00:51:54;14.70;;;12.02;;
13855;SDS011;6998;53.608;9.958;2022-07-21T00:54:21;19.05;;;12.68;;
13855;SDS011;6998;53.608;9.958;2022-07-21T00:56:48;14.23;;;11.18;;
13855;SDS011;6998;53.608;9.958;2022-07-21T00:59:15;16.83;;;12.60;;
13855;SDS011;6998;53.608;9.958;2022-07-21T01:01:42;16.15;;;12.45;;
13855;SDS011;6998;53.608;9.958;2022-07-21T01:04:09;16.65;;;12.40;;
13855;SDS011;6998;53.608;9.958;2022-07-21T01:06:37;14.82;;;11.57;;
13855;SDS011;6998;53.608;9.958;2022-07-21T01:09:04;19.88;;;12.32;;
13855;SDS011;6998;53.608;9.958;2022-07-21T01:11:31;15.30;;;11.50;;
13855;SDS011;6998;53.608;9.958;2022-07-21T01:13:58;15.38;;;12.35;;
13855;SDS011;6998;53.608;9.958;2022-07-21T01:16:25;15.25;;;12.70;;
13855;SDS011;6998;53.608;9.958;2022-07-21T01:18:52;15.00;;;11.63;;
13855;SDS011;6998;53.608;9.958;2022-07-21T01:21:31;16.10;;;11.70;;
13855;SDS011;6998;53.608;9.958;2022-07-21T01:23:59;16.77;;;12.77;;
13855;SDS011;6998;53.608;9.958;2022-07-21T01:26:27;17.55;;;11.85;;
13855;SDS011;6998;53.608;9.958;2022-07-21T01:28:55;15.52;;;11.82;;
13855;SDS011;6998;53.608;9.958;2022-07-21T01:31:22;17.45;;;12.68;;
13855;SDS011;6998;53.608;9.958;2022-07-21T01:33:50;14.30;;;12.60;;
13855;SDS011;6998;53.608;9.958;2022-07-21T01:36:17;14.57;;;11.88;;
13855;SDS011;6998;53.608;9.958;2022-07-21T01:38:45;15.45;;;12.57;;
13855;SDS011;6998;53.608;9.958;2022-07-21T01:41:29;14.18;;;11.57;;
13855;SDS011;6998;53.608;9.958;2022-07-21T01:43:57;13.98;;;11.93;;
13855;SDS011;6998;53.608;9.958;2022-07-21T01:46:24;17.73;;;12.35;;
13855;SDS011;6998;53.608;9.958;2022-07-21T01:48:51;17.77;;;12.43;;
13855;SDS011;6998;53.608;9.958;2022-07-21T01:51:18;14.55;;;12.43;;
13855;SDS011;6998;53.608;9.958;2022-07-21T01:53:46;16.48;;;12.27;;
13855;SDS011;6998;53.608;9.958;2022-07-21T01:56:13;16.73;;;12.85;;
13855;SDS011;6998;53.608;9.958;2022-07-21T01:58:40;16.15;;;12.00;;
13855;SDS011;6998;53.608;9.958;2022-07-21T02:01:06;14.50;;;11.88;;
13855;SDS011;6998;53.608;9.958;2022-07-21T02:03:33;13.15;;;11.63;;
13855;SDS011;6998;53.608;9.958;2022-07-21T02:06:00;16.65;;;11.63;;
13855;SDS011;6998;53.608;9.958;2022-07-21T02:08:28;14.90;;;12.15;;
13855;SDS011;6998;53.608;9.958;2022-07-21T02:10:57;16.25;;;11.88;;
13855;SDS011;6998;53.608;9.958;2022-07-21T02:13:24;17.20;;;11.90;;
13855;SDS011;6998;53.608;9.958;2022-07-21T02:15:51;17.55;;;13.38;;
13855;SDS011;6998;53.608;9.958;2022-07-21T02:18:18;15.48;;;12.00;;
13855;SDS011;6998;53.608;9.958;2022-07-21T02:20:44;16.23;;;12.32;;
13855;SDS011;6998;53.608;9.958;2022-07-21T02:23:13;17.35;;;12.15;;
13855;SDS011;6998;53.608;9.958;2022-07-21T02:25:40;19.65;;;12.73;;
13855;SDS011;6998;53.608;9.958;2022-07-21T02:28:08;16.13;;;11.75;;
13855;SDS011;6998;53.608;9.958;2022-07-21T02:30:35;16.50;;;12.13;;
13855;SDS011;6998;53.608;9.958;2022-07-21T02:33:02;17.58;;;12.65;;
13855;SDS011;6998;53.608;9.958;2022-07-21T02:35:29;17.48;;;12.25;;
13855;SDS011;6998;53.608;9.958;2022-07-21T02:37:56;18.85;;;13.43;;
13855;SDS011;6998;53.608;9.958;2022-07-21T02:40:23;17.05;;;14.25;;
13855;SDS011;6998;53.608;9.958;2022-07-21T02:42:50;21.15;;;13.75;;
13855;SDS011;6998;53.608;9.958;2022-07-21T02:45:18;18.35;;;12.98;;
13855;SDS011;6998;53.608;9.958;2022-07-21T02:47:51;19.88;;;13.88;;
13855;SDS011;6998;53.608;9.958;2022-07-21T02:50:19;18.42;;;13.80;;
13855;SDS011;6998;53.608;9.958;2022-07-21T02:52:47;18.52;;;13.93;;
13855;SDS011;6998;53.608;9.958;2022-07-21T02:55:14;20.48;;;13.93;;
13855;SDS011;6998;53.608;9.958;2022-07-21T02:57:41;16.25;;;13.40;;
13855;SDS011;6998;53.608;9.958;2022-07-21T03:00:09;18.17;;;13.88;;
13855;SDS011;6998;53.608;9.958;2022-07-21T03:02:37;19.70;;;13.98;;
13855;SDS011;6998;53.608;9.958;2022-07-21T03:05:04;16.83;;;14.43;;
13855;SDS011;6998;53.608;9.958;2022-07-21T03:07:31;20.83;;;15.18;;
13855;SDS011;6998;53.608;9.958;2022-07-21T03:09:58;23.13;;;14.70;;
13855;SDS011;6998;53.608;9.958;2022-07-21T03:12:25;18.05;;;13.45;;
13855;SDS011;6998;53.608;9.958;2022-07-21T03:14:52;18.95;;;13.82;;
13855;SDS011;6998;53.608;9.958;2022-07-21T03:17:18;20.20;;;13.52;;
13855;SDS011;6998;53.608;9.958;2022-07-21T03:19:47;19.45;;;13.95;;
13855;SDS011;6998;53.608;9.958;2022-07-21T03:22:13;18.13;;;12.48;;
13855;SDS011;6998;53.608;9.958;2022-07-21T03:24:40;17.67;;;13.27;;
13855;SDS011;6998;53.608;9.958;2022-07-21T03:27:07;17.40;;;12.05;;
13855;SDS011;6998;53.608;9.958;2022-07-21T03:29:33;19.75;;;12.25;;
13855;SDS011;6998;53.608;9.958;2022-07-21T03:32:00;16.50;;;12.18;;
13855;SDS011;6998;53.608;9.958;2022-07-21T03:34:27;18.55;;;11.70;;
13855;SDS011;6998;53.608;9.958;2022-07-21T03:36:55;16.77;;;11.27;;
13855;SDS011;6998;53.608;9.958;2022-07-21T03:39:22;18.83;;;11.15;;
13855;SDS011;6998;53.608;9.958;2022-07-21T03:41:48;16.25;;;10.80;;
13855;SDS011;6998;53.608;9.958;2022-07-21T03:44:15;16.20;;;10.65;;
13855;SDS011;6998;53.608;9.958;2022-07-21T03:46:42;18.60;;;10.23;;
13855;SDS011;6998;53.608;9.958;2022-07-21T03:49:09;17.25;;;9.85;;
13855;SDS011;6998;53.608;9.958;2022-07-21T03:51:36;15.63;;;8.75;;
13855;SDS011;6998;53.608;9.958;2022-07-21T03:54:04;14.25;;;8.75;;
13855;SDS011;6998;53.608;9.958;2022-07-21T03:56:30;16.27;;;8.88;;
13855;SDS011;6998;53.608;9.958;2022-07-21T03:58:57;14.10;;;8.55;;
13855;SDS011;6998;53.608;9.958;2022-07-21T04:01:24;15.65;;;7.82;;
13855;SDS011;6998;53.608;9.958;2022-07-21T04:03:51;16.45;;;8.38;;
13855;SDS011;6998;53.608;9.958;2022-07-21T04:06:18;13.98;;;7.80;;
13855;SDS011;6998;53.608;9.958;2022-07-21T04:08:44;15.48;;;7.72;;
13855;SDS011;6998;53.608;9.958;2022-07-21T04:11:12;12.40;;;7.20;;
13855;SDS011;6998;53.608;9.958;2022-07-21T04:13:39;15.57;;;7.90;;
13855;SDS011;6998;53.608;9.958;2022-07-21T04:16:06;12.85;;;7.78;;
13855;SDS011;6998;53.608;9.958;2022-07-21T04:18:33;16.95;;;7.40;;
13855;SDS011;6998;53.608;9.958;2022-07-21T04:21:00;16.70;;;8.30;;
13855;SDS011;6998;53.608;9.958;2022-07-21T04:23:26;19.73;;;7.80;;
13855;SDS011;6998;53.608;9.958;2022-07-21T04:25:53;14.27;;;7.88;;
13855;SDS011;6998;53.608;9.958;2022-07-21T04:28:21;13.98;;;7.65;;
13855;SDS011;6998;53.608;9.958;2022-07-21T04:30:48;17.17;;;7.40;;
13855;SDS011;6998;53.608;9.958;2022-07-21T04:33:14;12.98;;;6.88;;
13855;SDS011;6998;53.608;9.958;2022-07-21T04:35:41;14.63;;;7.15;;
13855;SDS011;6998;53.608;9.958;2022-07-21T04:38:08;11.50;;;7.18;;
13855;SDS011;6998;53.608;9.958;2022-07-21T04:40:35;13.50;;;7.50;;
13855;SDS011;6998;53.608;9.958;2022-07-21T04:43:02;13.07;;;6.97;;
13855;SDS011;6998;53.608;9.958;2022-07-21T04:45:30;15.15;;;6.65;;
13855;SDS011;6998;53.608;9.958;2022-07-21T04:47:57;12.80;;;6.65;;
13855;SDS011;6998;53.608;9.958;2022-07-21T04:50:25;13.15;;;6.43;;
13855;SDS011;6998;53.608;9.958;2022-07-21T04:52:53;11.07;;;6.63;;
13855;SDS011;6998;53.608;9.958;2022-07-21T04:55:20;12.43;;;6.13;;
13855;SDS011;6998;53.608;9.958;2022-07-21T04:57:48;12.55;;;6.15;;
13855;SDS011;6998;53.608;9.958;2022-07-21T05:00:17;13.80;;;6.25;;
13855;SDS011;6998;53.608;9.958;2022-07-21T05:02:46;10.13;;;6.18;;
13855;SDS011;6998;53.608;9.958;2022-07-21T05:05:13;16.08;;;6.07;;
13855;SDS011;6998;53.608;9.958;2022-07-21T05:07:40;14.10;;;6.70;;
13855;SDS011;6998;53.608;9.958;2022-07-21T05:10:11;12.63;;;6.57;;
13855;SDS011;6998;53.608;9.958;2022-07-21T05:12:39;13.82;;;6.60;;
13855;SDS011;6998;53.608;9.958;2022-07-21T05:15:06;14.13;;;6.15;;
13855;SDS011;6998;53.608;9.958;2022-07-21T05:17:36;15.25;;;6.88;;
13855;SDS011;6998;53.608;9.958;2022-07-21T05:20:04;11.52;;;6.32;;
13855;SDS011;6998;53.608;9.958;2022-07-21T05:22:32;12.07;;;6.20;;
13855;SDS011;6998;53.608;9.958;2022-07-21T05:24:59;11.73;;;6.63;;
13855;SDS011;6998;53.608;9.958;2022-07-21T05:27:25;10.88;;;6.10;;
13855;SDS011;6998;53.608;9.958;2022-07-21T05:29:52;13.65;;;7.10;;
13855;SDS011;6998;53.608;9.958;2022-07-21T05:32:19;11.88;;;6.22;;
13855;SDS011;6998;53.608;9.958;2022-07-21T05:34:46;10.18;;;5.70;;
13855;SDS011;6998;53.608;9.958;2022-07-21T05:37:14;10.63;;;6.32;;
13855;SDS011;6998;53.608;9.958;2022-07-21T05:39:41;11.40;;;5.45;;
13855;SDS011;6998;53.608;9.958;2022-07-21T05:42:08;11.90;;;6.00;;
13855;SDS011;6998;53.608;9.958;2022-07-21T05:44:34;11.90;;;5.95;;
13855;SDS011;6998;53.608;9.958;2022-07-21T05:47:01;10.20;;;5.95;;
13855;SDS011;6998;53.608;9.958;2022-07-21T05:49:28;11.85;;;5.97;;
13855;SDS011;6998;53.608;9.958;2022-07-21T05:51:55;11.05;;;5.55;;
13855;SDS011;6998;53.608;9.958;2022-07-21T05:54:23;7.43;;;5.50;;
13855;SDS011;6998;53.608;9.958;2022-07-21T05:56:50;9.05;;;5.43;;
13855;SDS011;6998;53.608;9.958;2022-07-21T05:59:17;8.43;;;4.95;;
13855;SDS011;6998;53.608;9.958;2022-07-21T06:01:44;8.27;;;5.32;;
13855;SDS011;6998;53.608;9.958;2022-07-21T06:04:10;10.07;;;5.40;;
13855;SDS011;6998;53.608;9.958;2022-07-21T06:06:38;9.43;;;5.40;;
13855;SDS011;6998;53.608;9.958;2022-07-21T06:09:04;9.90;;;5.60;;
13855;SDS011;6998;53.608;9.958;2022-07-21T06:11:33;8.82;;;5.45;;
13855;SDS011;6998;53.608;9.958;2022-07-21T06:13:59;12.60;;;6.47;;
13855;SDS011;6998;53.608;9.958;2022-07-21T06:16:26;15.00;;;6.53;;
13855;SDS011;6998;53.608;9.958;2022-07-21T06:18:53;14.77;;;6.50;;
13855;SDS011;6998;53.608;9.958;2022-07-21T06:21:19;9.48;;;6.20;;
13855;SDS011;6998;53.608;9.958;2022-07-21T06:23:46;8.98;;;5.40;;
13855;SDS011;6998;53.608;9.958;2022-07-21T06:26:13;10.48;;;6.22;;
13855;SDS011;6998;53.608;9.958;2022-07-21T06:28:49;10.02;;;6.35;;
13855;SDS011;6998;53.608;9.958;2022-07-21T06:31:16;10.90;;;6.05;;
13855;SDS011;6998;53.608;9.958;2022-07-21T06:33:42;9.30;;;6.20;;
13855;SDS011;6998;53.608;9.958;2022-07-21T06:36:09;9.38;;;6.65;;
13855;SDS011;6998;53.608;9.958;2022-07-21T06:38:36;10.20;;;6.40;;
13855;SDS011;6998;53.608;9.958;2022-07-21T06:41:06;12.68;;;6.45;;
13855;SDS011;6998;53.608;9.958;2022-07-21T06:43:32;10.80;;;6.28;;
13855;SDS011;6998;53.608;9.958;2022-07-21T06:46:01;9.65;;;5.57;;
13855;SDS011;6998;53.608;9.958;2022-07-21T06:48:28;10.32;;;6.00;;
13855;SDS011;6998;53.608;9.958;2022-07-21T06:50:55;12.60;;;6.93;;
13855;SDS011;6998;53.608;9.958;2022-07-21T06:53:22;10.02;;;6.15;;
13855;SDS011;6998;53.608;9.958;2022-07-21T06:55:50;11.20;;;6.20;;
13855;SDS011;6998;53.608;9.958;2022-07-21T06:58:19;11.60;;;6.70;;
13855;SDS011;6998;53.608;9.958;2022-07-21T07:00:49;11.75;;;7.13;;
13855;SDS011;6998;53.608;9.958;2022-07-21T07:03:19;8.82;;;6.03;;
13855;SDS011;6998;53.608;9.958;2022-07-21T07:05:47;7.95;;;5.95;;
13855;SDS011;6998;53.608;9.958;2022-07-21T07:08:14;8.73;;;6.32;;
13855;SDS011;6998;53.608;9.958;2022-07-21T07:10:42;10.02;;;6.32;;
13855;SDS011;6998;53.608;9.958;2022-07-21T07:13:09;9.43;;;6.85;;
13855;SDS011;6998;53.608;9.958;2022-07-21T07:15:36;13.02;;;7.13;;
13855;SDS011;6998;53.608;9.958;2022-07-21T07:18:03;12.15;;;7.70;;
13855;SDS011;6998;53.608;9.958;2022-07-21T07:20:31;13.82;;;8.00;;
13855;SDS011;6998;53.608;9.958;2022-07-21T07:22:58;11.48;;;6.78;;
13855;SDS011;6998;53.608;9.958;2022-07-21T07:25:25;11.10;;;6.85;;
13855;SDS011;6998;53.608;9.958;2022-07-21T07:27:51;11.95;;;7.95;;
13855;SDS011;6998;53.608;9.958;2022-07-21T07:30:19;10.63;;;7.78;;
13855;SDS011;6998;53.608;9.958;2022-07-21T07:32:46;13.82;;;7.75;;
13855;SDS011;6998;53.608;9.958;2022-07-21T07:35:13;14.18;;;8.48;;
13855;SDS011;6998;53.608;9.958;2022-07-21T07:37:43;14.40;;;8.55;;
13855;SDS011;6998;53.608;9.958;2022-07-21T07:40:12;14.80;;;8.88;;
13855;SDS011;6998;53.608;9.958;2022-07-21T07:42:41;13.35;;;8.63;;
13855;SDS011;6998;53.608;9.958;2022-07-21T07:45:08;12.70;;;9.27;;
13855;SDS011;6998;53.608;9.958;2022-07-21T07:47:36;16.35;;;9.63;;
13855;SDS011;6998;53.608;9.958;2022-07-21T07:50:03;11.18;;;8.45;;
13855;SDS011;6998;53.608;9.958;2022-07-21T07:52:30;12.98;;;8.52;;
13855;SDS011;6998;53.608;9.958;2022-07-21T07:54:58;14.35;;;9.43;;
13855;SDS011;6998;53.608;9.958;2022-07-21T07:57:29;16.25;;;9.05;;
13855;SDS011;6998;53.608;9.958;2022-07-21T07:59:56;14.85;;;10.20;;
13855;SDS011;6998;53.608;9.958;2022-07-21T08:02:22;19.50;;;11.35;;
13855;SDS011;6998;53.608;9.958;2022-07-21T08:04:49;16.15;;;10.82;;
13855;SDS011;6998;53.608;9.958;2022-07-21T08:07:16;12.93;;;10.68;;
13855;SDS011;6998;53.608;9.958;2022-07-21T08:09:43;19.13;;;12.13;;
13855;SDS011;6998;53.608;9.958;2022-07-21T08:12:11;12.93;;;11.00;;
13855;SDS011;6998;53.608;9.958;2022-07-21T08:14:38;14.63;;;12.35;;
13855;SDS011;6998;53.608;9.958;2022-07-21T08:17:05;16.00;;;11.93;;
13855;SDS011;6998;53.608;9.958;2022-07-21T08:19:31;18.45;;;12.38;;
13855;SDS011;6998;53.608;9.958;2022-07-21T08:21:58;15.55;;;12.90;;
13855;SDS011;6998;53.608;9.958;2022-07-21T08:24:26;16.08;;;12.75;;
13855;SDS011;6998;53.608;9.958;2022-07-21T08:26:55;17.92;;;14.32;;
13855;SDS011;6998;53.608;9.958;2022-07-21T08:29:23;17.20;;;14.05;;
13855;SDS011;6998;53.608;9.958;2022-07-21T08:31:50;19.33;;;14.85;;
13855;SDS011;6998;53.608;9.958;2022-07-21T08:34:17;17.45;;;14.13;;
13855;SDS011;6998;53.608;9.958;2022-07-21T08:36:43;16.77;;;13.85;;
13855;SDS011;6998;53.608;9.958;2022-07-21T08:39:10;17.38;;;13.88;;
13855;SDS011;6998;53.608;9.958;2022-07-21T08:41:37;14.40;;;12.48;;
13855;SDS011;6998;53.608;9.958;2022-07-21T08:44:05;17.08;;;14.65;;
13855;SDS011;6998;53.608;9.958;2022-07-21T08:46:37;16.05;;;13.93;;
13855;SDS011;6998;53.608;9.958;2022-07-21T08:49:07;21.60;;;15.65;;
13855;SDS011;6998;53.608;9.958;2022-07-21T08:51:35;17.35;;;14.05;;
13855;SDS011;6998;53.608;9.958;2022-07-21T08:54:02;19.25;;;14.30;;
13855;SDS011;6998;53.608;9.958;2022-07-21T08:56:30;17.88;;;14.95;;
13855;SDS011;6998;53.608;9.958;2022-07-21T08:58:57;18.05;;;15.25;;
13855;SDS011;6998;53.608;9.958;2022-07-21T09:01:24;17.80;;;15.90;;
13855;SDS011;6998;53.608;9.958;2022-07-21T09:03:52;19.17;;;16.95;;
13855;SDS011;6998;53.608;9.958;2022-07-21T09:06:19;18.58;;;16.30;;
13855;SDS011;6998;53.608;9.958;2022-07-21T09:08:46;16.75;;;14.65;;
13855;SDS011;6998;53.608;9.958;2022-07-21T09:11:16;19.50;;;16.75;;
13855;SDS011;6998;53.608;9.958;2022-07-21T09:13:45;19.38;;;16.60;;
13855;SDS011;6998;53.608;9.958;2022-07-21T09:16:28;21.98;;;16.02;;
13855;SDS011;6998;53.608;9.958;2022-07-21T09:19:01;19.60;;;15.27;;
13855;SDS011;6998;53.608;9.958;2022-07-21T09:21:28;15.93;;;14.25;;
13855;SDS011;6998;53.608;9.958;2022-07-21T09:24:10;16.10;;;14.55;;
13855;SDS011;6998;53.608;9.958;2022-07-21T09:29:24;14.57;;;12.60;;
13855;SDS011;6998;53.608;9.958;2022-07-21T09:31:51;17.10;;;13.65;;
13855;SDS011;6998;53.608;9.958;2022-07-21T09:34:19;14.93;;;13.52;;
13855;SDS011;6998;53.608;9.958;2022-07-21T09:36:55;18.02;;;14.63;;
13855;SDS011;6998;53.608;9.958;2022-07-21T09:42:13;15.02;;;13.13;;
13855;SDS011;6998;53.608;9.958;2022-07-21T09:44:42;15.15;;;13.20;;
13855;SDS011;6998;53.608;9.958;2022-07-21T09:47:10;16.40;;;14.25;;
13855;SDS011;6998;53.608;9.958;2022-07-21T09:49:39;14.48;;;12.45;;
13855;SDS011;6998;53.608;9.958;2022-07-21T09:52:20;15.48;;;13.15;;
13855;SDS011;6998;53.608;9.958;2022-07-21T09:54:51;13.55;;;12.15;;
13855;SDS011;6998;53.608;9.958;2022-07-21T09:57:19;14.95;;;13.50;;
13855;SDS011;6998;53.608;9.958;2022-07-21T09:59:49;13.70;;;12.27;;
13855;SDS011;6998;53.608;9.958;2022-07-21T10:02:17;17.30;;;13.98;;
13855;SDS011;6998;53.608;9.958;2022-07-21T10:04:48;17.05;;;12.82;;
13855;SDS011;6998;53.608;9.958;2022-07-21T10:07:22;12.23;;;11.00;;
13855;SDS011;6998;53.608;9.958;2022-07-21T10:09:49;13.30;;;11.85;;
13855;SDS011;6998;53.608;9.958;2022-07-21T10:12:16;15.27;;;13.68;;
13855;SDS011;6998;53.608;9.958;2022-07-21T10:14:43;12.95;;;10.73;;
13855;SDS011;6998;53.608;9.958;2022-07-21T10:17:11;14.38;;;12.00;;
13855;SDS011;6998;53.608;9.958;2022-07-21T10:19:40;14.00;;;12.23;;
13855;SDS011;6998;53.608;9.958;2022-07-21T10:22:20;14.65;;;13.13;;
13855;SDS011;6998;53.608;9.958;2022-07-21T10:24:56;13.55;;;12.07;;
13855;SDS011;6998;53.608;9.958;2022-07-21T10:27:25;13.13;;;11.80;;
13855;SDS011;6998;53.608;9.958;2022-07-21T10:29:54;12.15;;;10.93;;
13855;SDS011;6998;53.608;9.958;2022-07-21T10:32:24;11.98;;;10.63;;
13855;SDS011;6998;53.608;9.958;2022-07-21T10:34:54;11.93;;;10.68;;
13855;SDS011;6998;53.608;9.958;2022-07-21T10:40:34;11.63;;;10.27;;
13855;SDS011;6998;53.608;9.958;2022-07-21T10:49:01;10.75;;;9.70;;
13855;SDS011;6998;53.608;9.958;2022-07-21T10:51:31;11.65;;;9.55;;
13855;SDS011;6998;53.608;9.958;2022-07-21T10:54:16;8.95;;;8.15;;
13855;SDS011;6998;53.608;9.958;2022-07-21T10:56:48;10.52;;;8.05;;
13855;SDS011;6998;53.608;9.958;2022-07-21T10:59:15;9.20;;;7.78;;
13855;SDS011;6998;53.608;9.958;2022-07-21T11:01:43;8.40;;;7.70;;
13855;SDS011;6998;53.608;9.958;2022-07-21T11:04:11;7.50;;;6.80;;
13855;SDS011;6998;53.608;9.958;2022-07-21T11:06:42;7.00;;;6.35;;
13855;SDS011;6998;53.608;9.958;2022-07-21T11:09:11;6.72;;;6.03;;
13855;SDS011;6998;53.608;9.958;2022-07-21T11:11:55;6.10;;;5.20;;
13855;SDS011;6998;53.608;9.958;2022-07-21T11:14:34;6.65;;;5.20;;
13855;SDS011;6998;53.608;9.958;2022-07-21T11:17:06;5.38;;;4.97;;
13855;SDS011;6998;53.608;9.958;2022-07-21T11:19:41;5.40;;;4.90;;
13855;SDS011;6998;53.608;9.958;2022-07-21T11:22:11;4.63;;;4.22;;
13855;SDS011;6998;53.608;9.958;2022-07-21T11:24:42;5.07;;;4.57;;
13855;SDS011;6998;53.608;9.958;2022-07-21T11:27:13;4.97;;;4.55;;
13855;SDS011;6998;53.608;9.958;2022-07-21T11:29:43;4.75;;;4.28;;
13855;SDS011;6998;53.608;9.958;2022-07-21T11:32:11;5.70;;;5.20;;
13855;SDS011;6998;53.608;9.958;2022-07-21T11:34:40;5.60;;;5.10;;
13855;SDS011;6998;53.608;9.958;2022-07-21T11:37:09;4.97;;;4.50;;
13855;SDS011;6998;53.608;9.958;2022-07-21T11:39:37;4.43;;;4.13;;
13855;SDS011;6998;53.608;9.958;2022-07-21T11:42:06;4.28;;;3.88;;
13855;SDS011;6998;53.608;9.958;2022-07-21T11:44:35;4.60;;;4.10;;
13855;SDS011;6998;53.608;9.958;2022-07-21T11:47:03;4.20;;;3.80;;
13855;SDS011;6998;53.608;9.958;2022-07-21T11:49:31;4.05;;;3.75;;
13855;SDS011;6998;53.608;9.958;2022-07-21T11:51:59;4.25;;;3.60;;
13855;SDS011;6998;53.608;9.958;2022-07-21T11:54:28;4.20;;;3.80;;
13855;SDS011;6998;53.608;9.958;2022-07-21T11:56:58;3.97;;;3.65;;
13855;SDS011;6998;53.608;9.958;2022-07-21T11:59:26;4.25;;;3.85;;
13855;SDS011;6998;53.608;9.958;2022-07-21T12:01:56;4.28;;;3.90;;
13855;SDS011;6998;53.608;9.958;2022-07-21T12:04:32;4.07;;;3.78;;
13855;SDS011;6998;53.608;9.958;2022-07-21T12:07:04;3.95;;;3.53;;
13855;SDS011;6998;53.608;9.958;2022-07-21T12:09:32;4.20;;;3.90;;
13855;SDS011;6998;53.608;9.958;2022-07-21T12:11:59;4.30;;;3.90;;
13855;SDS011;6998;53.608;9.958;2022-07-21T12:17:15;3.70;;;3.40;;
13855;SDS011;6998;53.608;9.958;2022-07-21T12:19:44;4.00;;;3.38;;
13855;SDS011;6998;53.608;9.958;2022-07-21T12:22:11;3.65;;;3.35;;
13855;SDS011;6998;53.608;9.958;2022-07-21T12:24:47;4.05;;;3.45;;
13855;SDS011;6998;53.608;9.958;2022-07-21T12:27:18;4.32;;;3.70;;
13855;SDS011;6998;53.608;9.958;2022-07-21T12:29:45;4.13;;;3.03;;
13855;SDS011;6998;53.608;9.958;2022-07-21T12:32:13;5.80;;;3.83;;
13855;SDS011;6998;53.608;9.958;2022-07-21T12:35:03;3.90;;;3.60;;
13855;SDS011;6998;53.608;9.958;2022-07-21T12:40:18;3.75;;;3.45;;
13855;SDS011;6998;53.608;9.958;2022-07-21T12:42:45;3.42;;;3.13;;
13855;SDS011;6998;53.608;9.958;2022-07-21T12:45:13;3.80;;;3.50;;
13855;SDS011;6998;53.608;9.958;2022-07-21T12:47:41;4.50;;;3.78;;
13855;SDS011;6998;53.608;9.958;2022-07-21T12:50:13;4.25;;;3.53;;
13855;SDS011;6998;53.608;9.958;2022-07-21T12:52:41;4.35;;;3.78;;
13855;SDS011;6998;53.608;9.958;2022-07-21T12:55:08;3.80;;;3.50;;
13855;SDS011;6998;53.608;9.958;2022-07-21T12:57:34;4.18;;;3.20;;
13855;SDS011;6998;53.608;9.958;2022-07-21T13:00:01;4.05;;;3.50;;
13855;SDS011;6998;53.608;9.958;2022-07-21T13:02:30;4.47;;;4.07;;
13855;SDS011;6998;53.608;9.958;2022-07-21T13:05:13;4.20;;;3.45;;
13855;SDS011;6998;53.608;9.958;2022-07-21T13:07:40;4.85;;;3.45;;
13855;SDS011;6998;53.608;9.958;2022-07-21T13:10:06;3.50;;;3.20;;
13855;SDS011;6998;53.608;9.958;2022-07-21T13:12:33;5.43;;;3.10;;
13855;SDS011;6998;53.608;9.958;2022-07-21T13:15:00;3.72;;;3.40;;
13855;SDS011;6998;53.608;9.958;2022-07-21T13:17:27;3.30;;;3.00;;
13855;SDS011;6998;53.608;9.958;2022-07-21T13:19:54;3.30;;;3.10;;
13855;SDS011;6998;53.608;9.958;2022-07-21T13:22:22;3.55;;;3.00;;
13855;SDS011;6998;53.608;9.958;2022-07-21T13:24:49;3.20;;;2.90;;
13855;SDS011;6998;53.608;9.958;2022-07-21T13:27:15;3.10;;;2.90;;
13855;SDS011;6998;53.608;9.958;2022-07-21T13:29:42;4.35;;;3.30;;
13855;SDS011;6998;53.608;9.958;2022-07-21T13:32:09;4.20;;;3.80;;
13855;SDS011;6998;53.608;9.958;2022-07-21T13:34:36;4.53;;;3.70;;
13855;SDS011;6998;53.608;9.958;2022-07-21T13:37:03;4.97;;;4.47;;
13855;SDS011;6998;53.608;9.958;2022-07-21T13:39:31;6.45;;;4.50;;
13855;SDS011;6998;53.608;9.958;2022-07-21T13:41:57;5.63;;;3.95;;
13855;SDS011;6998;53.608;9.958;2022-07-21T13:44:24;5.05;;;3.95;;
13855;SDS011;6998;53.608;9.958;2022-07-21T13:46:51;4.00;;;3.63;;
13855;SDS011;6998;53.608;9.958;2022-07-21T13:49:18;5.25;;;3.60;;
13855;SDS011;6998;53.608;9.958;2022-07-21T13:51:44;4.55;;;3.35;;
13855;SDS011;6998;53.608;9.958;2022-07-21T13:54:11;3.63;;;3.33;;
13855;SDS011;6998;53.608;9.958;2022-07-21T13:56:39;3.17;;;2.85;;
13855;SDS011;6998;53.608;9.958;2022-07-21T13:59:06;2.70;;;2.50;;
13855;SDS011;6998;53.608;9.958;2022-07-21T14:01:33;3.05;;;2.78;;
13855;SDS011;6998;53.608;9.958;2022-07-21T14:04:00;3.42;;;2.60;;
13855;SDS011;6998;53.608;9.958;2022-07-21T14:06:27;2.67;;;2.47;;
13855;SDS011;6998;53.608;9.958;2022-07-21T14:08:54;2.67;;;2.47;;
13855;SDS011;6998;53.608;9.958;2022-07-21T14:11:21;2.92;;;2.60;;
13855;SDS011;6998;53.608;9.958;2022-07-21T14:13:51;2.80;;;2.60;;
13855;SDS011;6998;53.608;9.958;2022-07-21T14:16:18;2.92;;;2.60;;
13855;SDS011;6998;53.608;9.958;2022-07-21T14:18:45;2.80;;;2.40;;
13855;SDS011;6998;53.608;9.958;2022-07-21T14:21:12;2.60;;;2.40;;
13855;SDS011;6998;53.608;9.958;2022-07-21T14:23:39;3.65;;;2.80;;
13855;SDS011;6998;53.608;9.958;2022-07-21T14:26:05;3.50;;;2.58;;
13855;SDS011;6998;53.608;9.958;2022-07-21T14:28:32;2.97;;;2.63;;
13855;SDS011;6998;53.608;9.958;2022-07-21T14:31:01;2.78;;;2.58;;
13855;SDS011;6998;53.608;9.958;2022-07-21T14:33:28;3.50;;;2.40;;
13855;SDS011;6998;53.608;9.958;2022-07-21T14:35:55;2.65;;;2.45;;
13855;SDS011;6998;53.608;9.958;2022-07-21T14:38:22;3.20;;;2.90;;
13855;SDS011;6998;53.608;9.958;2022-07-21T14:40:49;3.13;;;2.70;;
13855;SDS011;6998;53.608;9.958;2022-07-21T14:43:15;2.83;;;2.60;;
13855;SDS011;6998;53.608;9.958;2022-07-21T14:45:42;3.45;;;2.42;;
13855;SDS011;6998;53.608;9.958;2022-07-21T14:48:10;2.63;;;2.42;;
13855;SDS011;6998;53.608;9.958;2022-07-21T14:50:37;2.95;;;2.72;;
13855;SDS011;6998;53.608;9.958;2022-07-21T14:53:03;2.80;;;2.60;;
13855;SDS011;6998;53.608;9.958;2022-07-21T14:55:31;2.72;;;2.50;;
13855;SDS011;6998;53.608;9.958;2022-07-21T14:57:58;2.75;;;2.53;;
13855;SDS011;6998;53.608;9.958;2022-07-21T15:00:25;2.60;;;2.40;;
13855;SDS011;6998;53.608;9.958;2022-07-21T15:02:51;2.80;;;2.50;;
13855;SDS011;6998;53.608;9.958;2022-07-21T15:05:20;4.18;;;2.63;;
13855;SDS011;6998;53.608;9.958;2022-07-21T15:07:46;2.90;;;2.70;;
13855;SDS011;6998;53.608;9.958;2022-07-21T15:10:13;3.88;;;2.70;;